sensor_id;sensor_type;location;lat;lon;timestamp;temperature;humidity
5394;DHT22;2720;52.396;10.064;2022-09-09T00:01:20;13.10;99.90
5394;DHT22;2720;52.396;10.064;2022-09-09T00:03:54;13.00;99.90
5394;DHT22;2720;52.396;10.064;2022-09-09T00:06:28;13.00;99.90
5394;DHT22;2720;52.396;10.064;2022-09-09T00:09:01;12.90;99.90
5394;DHT22;2720;52.396;10.064;2022-09-09T00:11:33;13.00;99.90
5394;DHT22;2720;52.396;10.064;2022-09-09T00:14:13;12.90;99.90
5394;DHT22;2720;52.396;10.064;2022-09-09T00:16:49;12.90;99.90
5394;DHT22;2720;52.396;10.064;2022-09-09T00:19:21;12.90;99.90
5394;DHT22;2720;52.396;10.064;2022-09-09T00:21:54;12.90;99.90
5394;DHT22;2720;52.396;10.064;2022-09-09T00:24:27;12.90;99.90
5394;DHT22;2720;52.396;10.064;2022-09-09T00:27:01;12.90;99.90
5394;DHT22;2720;52.396;10.064;2022-09-09T00:29:37;12.90;99.90
5394;DHT22;2720;52.396;10.064;2022-09-09T00:32:13;12.90;99.90
5394;DHT22;2720;52.396;10.064;2022-09-09T00:34:48;12.90;99.90
5394;DHT22;2720;52.396;10.064;2022-09-09T00:37:15;12.90;99.90
5394;DHT22;2720;52.396;10.064;2022-09-09T00:39:45;12.90;99.90
5394;DHT22;2720;52.396;10.064;2022-09-09T00:42:15;12.80;99.90
5394;DHT22;2720;52.396;10.064;2022-09-09T00:44:58;12.80;99.90
5394;DHT22;2720;52.396;10.064;2022-09-09T00:47:44;12.90;99.90
5394;DHT22;2720;52.396;10.064;2022-09-09T00:50:26;12.90;99.90
5394;DHT22;2720;52.396;10.064;2022-09-09T00:53:02;12.90;99.90
5394;DHT22;2720;52.396;10.064;2022-09-09T00:55:39;12.80;99.90
5394;DHT22;2720;52.396;10.064;2022-09-09T00:58:09;12.80;99.90
5394;DHT22;2720;52.396;10.064;2022-09-09T01:00:42;12.70;99.90
5394;DHT22;2720;52.396;10.064;2022-09-09T01:03:20;12.70;99.90
5394;DHT22;2720;52.396;10.064;2022-09-09T01:05:54;12.70;99.90
5394;DHT22;2720;52.396;10.064;2022-09-09T01:08:50;12.70;99.90
5394;DHT22;2720;52.396;10.064;2022-09-09T01:11:22;12.60;99.90
5394;DHT22;2720;52.396;10.064;2022-09-09T01:13:56;12.70;99.90
5394;DHT22;2720;52.396;10.064;2022-09-09T01:16:28;12.70;99.90
5394;DHT22;2720;52.396;10.064;2022-09-09T01:18:58;12.80;99.90
5394;DHT22;2720;52.396;10.064;2022-09-09T01:21:37;12.80;99.90
5394;DHT22;2720;52.396;10.064;2022-09-09T01:24:23;12.70;99.90
5394;DHT22;2720;52.396;10.064;2022-09-09T01:26:54;12.70;99.90
5394;DHT22;2720;52.396;10.064;2022-09-09T01:29:24;12.70;99.90
5394;DHT22;2720;52.396;10.064;2022-09-09T01:31:54;12.70;99.90
5394;DHT22;2720;52.396;10.064;2022-09-09T01:34:22;12.70;99.90
5394;DHT22;2720;52.396;10.064;2022-09-09T01:36:55;12.70;99.90
5394;DHT22;2720;52.396;10.064;2022-09-09T01:39:24;12.70;99.90
5394;DHT22;2720;52.396;10.064;2022-09-09T01:41:53;12.70;99.90
5394;DHT22;2720;52.396;10.064;2022-09-09T01:44:22;12.70;99.90
5394;DHT22;2720;52.396;10.064;2022-09-09T01:46:49;12.70;99.90
5394;DHT22;2720;52.396;10.064;2022-09-09T01:49:17;12.70;99.90
5394;DHT22;2720;52.396;10.064;2022-09-09T01:51:47;12.70;99.90
5394;DHT22;2720;52.396;10.064;2022-09-09T01:54:16;12.70;99.90
5394;DHT22;2720;52.396;10.064;2022-09-09T01:56:47;12.60;99.90
5394;DHT22;2720;52.396;10.064;2022-09-09T01:59:47;12.70;99.90
5394;DHT22;2720;52.396;10.064;2022-09-09T02:02:18;12.60;99.90
5394;DHT22;2720;52.396;10.064;2022-09-09T02:07:27;12.60;99.90
5394;DHT22;2720;52.396;10.064;2022-09-09T02:10:00;12.60;99.90
5394;DHT22;2720;52.396;10.064;2022-09-09T02:15:03;12.60;99.90
5394;DHT22;2720;52.396;10.064;2022-09-09T02:17:34;12.50;99.90
5394;DHT22;2720;52.396;10.064;2022-09-09T02:20:05;12.50;99.90
5394;DHT22;2720;52.396;10.064;2022-09-09T02:22:35;12.60;99.90
5394;DHT22;2720;52.396;10.064;2022-09-09T02:25:07;12.60;99.90
5394;DHT22;2720;52.396;10.064;2022-09-09T02:27:35;12.60;99.90
5394;DHT22;2720;52.396;10.064;2022-09-09T02:30:04;12.60;99.90
5394;DHT22;2720;52.396;10.064;2022-09-09T02:32:34;12.70;99.90
5394;DHT22;2720;52.396;10.064;2022-09-09T02:35:06;12.70;99.90
5394;DHT22;2720;52.396;10.064;2022-09-09T02:37:36;12.70;99.90
5394;DHT22;2720;52.396;10.064;2022-09-09T02:40:04;12.70;99.90
5394;DHT22;2720;52.396;10.064;2022-09-09T02:42:32;12.70;99.90
5394;DHT22;2720;52.396;10.064;2022-09-09T02:45:07;12.70;99.90
5394;DHT22;2720;52.396;10.064;2022-09-09T02:47:37;12.70;99.90
5394;DHT22;2720;52.396;10.064;2022-09-09T02:50:11;12.70;99.90
5394;DHT22;2720;52.396;10.064;2022-09-09T02:52:47;12.70;99.90
5394;DHT22;2720;52.396;10.064;2022-09-09T02:55:22;12.70;99.90
5394;DHT22;2720;52.396;10.064;2022-09-09T02:57:52;12.80;99.90
5394;DHT22;2720;52.396;10.064;2022-09-09T03:00:24;12.80;99.90
5394;DHT22;2720;52.396;10.064;2022-09-09T03:02:51;12.80;99.90
5394;DHT22;2720;52.396;10.064;2022-09-09T03:05:20;12.80;99.90
5394;DHT22;2720;52.396;10.064;2022-09-09T03:07:47;12.70;99.90
5394;DHT22;2720;52.396;10.064;2022-09-09T03:10:15;12.80;99.90
5394;DHT22;2720;52.396;10.064;2022-09-09T03:12:42;12.80;99.90
5394;DHT22;2720;52.396;10.064;2022-09-09T03:15:10;12.80;99.90
5394;DHT22;2720;52.396;10.064;2022-09-09T03:17:38;12.80;99.90
5394;DHT22;2720;52.396;10.064;2022-09-09T03:20:06;12.80;99.90
5394;DHT22;2720;52.396;10.064;2022-09-09T03:22:34;12.90;99.90
5394;DHT22;2720;52.396;10.064;2022-09-09T03:25:01;13.00;99.90
5394;DHT22;2720;52.396;10.064;2022-09-09T03:27:28;13.00;99.90
5394;DHT22;2720;52.396;10.064;2022-09-09T03:29:55;13.10;99.90
5394;DHT22;2720;52.396;10.064;2022-09-09T03:32:23;13.10;99.90
5394;DHT22;2720;52.396;10.064;2022-09-09T03:34:52;13.20;99.90
5394;DHT22;2720;52.396;10.064;2022-09-09T03:37:20;13.20;99.90
5394;DHT22;2720;52.396;10.064;2022-09-09T03:39:48;13.20;99.90
5394;DHT22;2720;52.396;10.064;2022-09-09T03:42:15;13.30;99.90
5394;DHT22;2720;52.396;10.064;2022-09-09T03:44:44;13.40;99.90
5394;DHT22;2720;52.396;10.064;2022-09-09T03:47:12;13.30;99.90
5394;DHT22;2720;52.396;10.064;2022-09-09T03:49:39;13.30;99.90
5394;DHT22;2720;52.396;10.064;2022-09-09T03:52:08;13.30;99.90
5394;DHT22;2720;52.396;10.064;2022-09-09T03:54:35;13.30;99.90
5394;DHT22;2720;52.396;10.064;2022-09-09T03:57:02;13.40;99.90
5394;DHT22;2720;52.396;10.064;2022-09-09T03:59:30;13.40;99.90
5394;DHT22;2720;52.396;10.064;2022-09-09T04:01:57;13.40;99.90
5394;DHT22;2720;52.396;10.064;2022-09-09T04:04:25;13.40;99.90
5394;DHT22;2720;52.396;10.064;2022-09-09T04:06:52;13.40;99.90
5394;DHT22;2720;52.396;10.064;2022-09-09T04:09:21;13.40;99.90
5394;DHT22;2720;52.396;10.064;2022-09-09T04:11:48;13.40;99.90
5394;DHT22;2720;52.396;10.064;2022-09-09T04:14:16;13.40;99.90
5394;DHT22;2720;52.396;10.064;2022-09-09T04:16:43;13.40;99.90
5394;DHT22;2720;52.396;10.064;2022-09-09T04:19:10;13.40;99.90
5394;DHT22;2720;52.396;10.064;2022-09-09T04:21:38;13.40;99.90
5394;DHT22;2720;52.396;10.064;2022-09-09T04:24:06;13.40;99.90
5394;DHT22;2720;52.396;10.064;2022-09-09T04:26:35;12.80;99.90
5394;DHT22;2720;52.396;10.064;2022-09-09T04:29:03;13.30;99.90
5394;DHT22;2720;52.396;10.064;2022-09-09T04:31:31;13.30;99.90
5394;DHT22;2720;52.396;10.064;2022-09-09T04:33:58;13.20;99.90
5394;DHT22;2720;52.396;10.064;2022-09-09T04:36:27;13.30;99.90
5394;DHT22;2720;52.396;10.064;2022-09-09T04:38:54;13.30;99.90
5394;DHT22;2720;52.396;10.064;2022-09-09T04:41:21;13.30;99.90
5394;DHT22;2720;52.396;10.064;2022-09-09T04:43:50;13.30;99.90
5394;DHT22;2720;52.396;10.064;2022-09-09T04:46:19;13.40;99.90
5394;DHT22;2720;52.396;10.064;2022-09-09T04:48:46;13.40;99.90
5394;DHT22;2720;52.396;10.064;2022-09-09T04:51:14;13.50;99.90
5394;DHT22;2720;52.396;10.064;2022-09-09T04:53:41;13.60;99.90
5394;DHT22;2720;52.396;10.064;2022-09-09T04:56:10;13.70;99.90
5394;DHT22;2720;52.396;10.064;2022-09-09T04:58:38;13.70;99.90
5394;DHT22;2720;52.396;10.064;2022-09-09T05:01:08;13.70;99.90
5394;DHT22;2720;52.396;10.064;2022-09-09T05:03:35;13.80;99.90
5394;DHT22;2720;52.396;10.064;2022-09-09T05:06:05;13.80;99.90
5394;DHT22;2720;52.396;10.064;2022-09-09T05:08:32;13.80;99.90
5394;DHT22;2720;52.396;10.064;2022-09-09T05:10:59;13.80;99.90
5394;DHT22;2720;52.396;10.064;2022-09-09T05:13:26;13.80;99.90
5394;DHT22;2720;52.396;10.064;2022-09-09T05:15:54;13.80;99.90
5394;DHT22;2720;52.396;10.064;2022-09-09T05:18:23;13.90;99.90
5394;DHT22;2720;52.396;10.064;2022-09-09T05:20:50;13.90;99.90
5394;DHT22;2720;52.396;10.064;2022-09-09T05:23:17;13.90;99.90
5394;DHT22;2720;52.396;10.064;2022-09-09T05:25:54;13.90;99.90
5394;DHT22;2720;52.396;10.064;2022-09-09T05:28:22;13.90;99.90
5394;DHT22;2720;52.396;10.064;2022-09-09T05:30:56;13.90;99.90
5394;DHT22;2720;52.396;10.064;2022-09-09T05:33:25;13.90;99.90
5394;DHT22;2720;52.396;10.064;2022-09-09T05:35:56;14.00;99.90
5394;DHT22;2720;52.396;10.064;2022-09-09T05:38:23;14.00;99.90
5394;DHT22;2720;52.396;10.064;2022-09-09T05:40:51;14.10;99.90
5394;DHT22;2720;52.396;10.064;2022-09-09T05:43:18;14.10;99.90
5394;DHT22;2720;52.396;10.064;2022-09-09T05:45:45;14.10;99.90
5394;DHT22;2720;52.396;10.064;2022-09-09T05:48:13;14.10;99.90
5394;DHT22;2720;52.396;10.064;2022-09-09T05:50:42;14.10;99.90
5394;DHT22;2720;52.396;10.064;2022-09-09T05:53:10;14.10;99.90
5394;DHT22;2720;52.396;10.064;2022-09-09T05:55:37;14.10;99.90
5394;DHT22;2720;52.396;10.064;2022-09-09T05:58:04;14.10;99.90
5394;DHT22;2720;52.396;10.064;2022-09-09T06:00:31;14.20;99.90
5394;DHT22;2720;52.396;10.064;2022-09-09T06:02:58;14.20;99.90
5394;DHT22;2720;52.396;10.064;2022-09-09T06:05:25;14.20;99.90
5394;DHT22;2720;52.396;10.064;2022-09-09T06:07:55;14.30;99.90
5394;DHT22;2720;52.396;10.064;2022-09-09T06:10:22;14.30;99.90
5394;DHT22;2720;52.396;10.064;2022-09-09T06:12:52;14.50;99.90
5394;DHT22;2720;52.396;10.064;2022-09-09T06:15:20;14.60;99.90
5394;DHT22;2720;52.396;10.064;2022-09-09T06:17:47;14.60;99.90
5394;DHT22;2720;52.396;10.064;2022-09-09T06:20:15;14.70;99.90
5394;DHT22;2720;52.396;10.064;2022-09-09T06:22:42;14.60;99.90
5394;DHT22;2720;52.396;10.064;2022-09-09T06:25:13;14.60;99.90
5394;DHT22;2720;52.396;10.064;2022-09-09T06:27:40;14.60;99.90
5394;DHT22;2720;52.396;10.064;2022-09-09T06:30:09;14.60;99.90
5394;DHT22;2720;52.396;10.064;2022-09-09T06:32:36;14.60;99.90
5394;DHT22;2720;52.396;10.064;2022-09-09T06:35:05;14.70;99.90
5394;DHT22;2720;52.396;10.064;2022-09-09T06:37:33;14.80;99.90
5394;DHT22;2720;52.396;10.064;2022-09-09T06:40:00;14.90;99.90
5394;DHT22;2720;52.396;10.064;2022-09-09T06:42:28;15.10;99.90
5394;DHT22;2720;52.396;10.064;2022-09-09T06:44:56;15.30;99.90
5394;DHT22;2720;52.396;10.064;2022-09-09T06:47:23;15.50;99.90
5394;DHT22;2720;52.396;10.064;2022-09-09T06:49:50;15.70;99.90
5394;DHT22;2720;52.396;10.064;2022-09-09T06:52:17;15.80;99.90
5394;DHT22;2720;52.396;10.064;2022-09-09T06:54:44;16.00;99.90
5394;DHT22;2720;52.396;10.064;2022-09-09T06:57:11;16.10;99.90
5394;DHT22;2720;52.396;10.064;2022-09-09T06:59:40;16.30;99.90
5394;DHT22;2720;52.396;10.064;2022-09-09T07:02:08;16.40;99.90
5394;DHT22;2720;52.396;10.064;2022-09-09T07:04:35;16.40;99.90
5394;DHT22;2720;52.396;10.064;2022-09-09T07:07:02;16.50;99.90
5394;DHT22;2720;52.396;10.064;2022-09-09T07:09:29;16.50;99.90
5394;DHT22;2720;52.396;10.064;2022-09-09T07:11:57;16.60;99.90
5394;DHT22;2720;52.396;10.064;2022-09-09T07:14:25;16.60;99.90
5394;DHT22;2720;52.396;10.064;2022-09-09T07:16:54;16.50;99.90
5394;DHT22;2720;52.396;10.064;2022-09-09T07:19:21;16.60;99.90
5394;DHT22;2720;52.396;10.064;2022-09-09T07:21:48;16.60;99.90
5394;DHT22;2720;52.396;10.064;2022-09-09T07:24:15;16.80;99.90
5394;DHT22;2720;52.396;10.064;2022-09-09T07:26:42;16.70;99.90
5394;DHT22;2720;52.396;10.064;2022-09-09T07:29:11;16.70;99.90
5394;DHT22;2720;52.396;10.064;2022-09-09T07:31:39;16.70;99.90
5394;DHT22;2720;52.396;10.064;2022-09-09T07:34:08;16.70;99.90
5394;DHT22;2720;52.396;10.064;2022-09-09T07:36:36;16.70;99.90
5394;DHT22;2720;52.396;10.064;2022-09-09T07:39:06;16.70;99.90
5394;DHT22;2720;52.396;10.064;2022-09-09T07:41:36;16.60;99.90
5394;DHT22;2720;52.396;10.064;2022-09-09T07:44:05;16.60;99.90
5394;DHT22;2720;52.396;10.064;2022-09-09T07:46:33;16.60;99.90
5394;DHT22;2720;52.396;10.064;2022-09-09T07:49:00;16.60;99.90
5394;DHT22;2720;52.396;10.064;2022-09-09T07:51:30;16.50;99.90
5394;DHT22;2720;52.396;10.064;2022-09-09T07:53:59;16.50;99.90
5394;DHT22;2720;52.396;10.064;2022-09-09T07:56:28;16.60;99.90
5394;DHT22;2720;52.396;10.064;2022-09-09T07:58:56;16.50;99.90
5394;DHT22;2720;52.396;10.064;2022-09-09T08:01:26;16.50;99.90
5394;DHT22;2720;52.396;10.064;2022-09-09T08:03:55;16.60;99.90
5394;DHT22;2720;52.396;10.064;2022-09-09T08:06:24;17.00;99.90
5394;DHT22;2720;52.396;10.064;2022-09-09T08:08:53;16.70;99.90
5394;DHT22;2720;52.396;10.064;2022-09-09T08:11:23;16.70;99.90
5394;DHT22;2720;52.396;10.064;2022-09-09T08:13:51;16.70;99.90
5394;DHT22;2720;52.396;10.064;2022-09-09T08:16:21;16.90;99.90
5394;DHT22;2720;52.396;10.064;2022-09-09T08:18:48;16.90;99.90
5394;DHT22;2720;52.396;10.064;2022-09-09T08:21:18;16.90;99.90
5394;DHT22;2720;52.396;10.064;2022-09-09T08:23:46;16.90;99.90
5394;DHT22;2720;52.396;10.064;2022-09-09T08:26:17;16.90;99.90
5394;DHT22;2720;52.396;10.064;2022-09-09T08:28:48;17.00;99.90
5394;DHT22;2720;52.396;10.064;2022-09-09T08:31:18;17.20;99.90
5394;DHT22;2720;52.396;10.064;2022-09-09T08:33:45;17.40;99.90
5394;DHT22;2720;52.396;10.064;2022-09-09T08:36:14;17.50;99.90
5394;DHT22;2720;52.396;10.064;2022-09-09T08:38:42;17.70;99.90
5394;DHT22;2720;52.396;10.064;2022-09-09T08:44:23;18.10;99.90
5394;DHT22;2720;52.396;10.064;2022-09-09T08:47:00;18.40;99.90
5394;DHT22;2720;52.396;10.064;2022-09-09T08:49:55;18.40;99.90
5394;DHT22;2720;52.396;10.064;2022-09-09T08:52:28;18.40;99.90
5394;DHT22;2720;52.396;10.064;2022-09-09T08:54:58;18.30;99.90
5394;DHT22;2720;52.396;10.064;2022-09-09T08:57:31;18.40;99.90
5394;DHT22;2720;52.396;10.064;2022-09-09T08:59:59;18.60;99.90
5394;DHT22;2720;52.396;10.064;2022-09-09T09:02:30;18.90;99.90
5394;DHT22;2720;52.396;10.064;2022-09-09T09:05:14;19.30;99.90
5394;DHT22;2720;52.396;10.064;2022-09-09T09:07:55;19.60;99.90
5394;DHT22;2720;52.396;10.064;2022-09-09T09:10:41;19.90;99.90
5394;DHT22;2720;52.396;10.064;2022-09-09T09:13:15;20.10;99.90
5394;DHT22;2720;52.396;10.064;2022-09-09T09:15:47;20.30;99.90
5394;DHT22;2720;52.396;10.064;2022-09-09T09:18:17;20.40;99.90
5394;DHT22;2720;52.396;10.064;2022-09-09T09:20:54;20.30;99.90
5394;DHT22;2720;52.396;10.064;2022-09-09T09:23:25;20.20;99.90
5394;DHT22;2720;52.396;10.064;2022-09-09T09:25:56;20.30;99.90
5394;DHT22;2720;52.396;10.064;2022-09-09T09:28:29;20.40;99.90
5394;DHT22;2720;52.396;10.064;2022-09-09T09:30:58;20.40;99.90
5394;DHT22;2720;52.396;10.064;2022-09-09T09:33:29;20.70;99.90
5394;DHT22;2720;52.396;10.064;2022-09-09T09:35:59;21.00;99.90
5394;DHT22;2720;52.396;10.064;2022-09-09T09:38:27;21.30;99.90
5394;DHT22;2720;52.396;10.064;2022-09-09T09:40:55;21.50;99.90
5394;DHT22;2720;52.396;10.064;2022-09-09T09:43:27;21.70;99.90
5394;DHT22;2720;52.396;10.064;2022-09-09T09:45:55;21.80;99.90
5394;DHT22;2720;52.396;10.064;2022-09-09T09:48:24;21.80;99.90
5394;DHT22;2720;52.396;10.064;2022-09-09T09:50:52;21.80;99.90
5394;DHT22;2720;52.396;10.064;2022-09-09T09:53:23;21.80;99.90
5394;DHT22;2720;52.396;10.064;2022-09-09T09:55:55;21.60;99.90
5394;DHT22;2720;52.396;10.064;2022-09-09T09:58:23;21.70;99.90
5394;DHT22;2720;52.396;10.064;2022-09-09T10:00:53;21.60;99.90
5394;DHT22;2720;52.396;10.064;2022-09-09T10:03:24;21.50;99.90
5394;DHT22;2720;52.396;10.064;2022-09-09T10:05:51;21.20;99.90
5394;DHT22;2720;52.396;10.064;2022-09-09T10:08:19;20.90;99.90
5394;DHT22;2720;52.396;10.064;2022-09-09T10:11:09;20.80;99.90
5394;DHT22;2720;52.396;10.064;2022-09-09T10:13:47;20.90;99.90
5394;DHT22;2720;52.396;10.064;2022-09-09T10:16:33;20.80;99.90
5394;DHT22;2720;52.396;10.064;2022-09-09T10:19:04;20.80;99.90
5394;DHT22;2720;52.396;10.064;2022-09-09T10:21:50;20.70;99.90
5394;DHT22;2720;52.396;10.064;2022-09-09T10:24:33;20.70;99.90
5394;DHT22;2720;52.396;10.064;2022-09-09T10:27:09;20.70;99.90
5394;DHT22;2720;52.396;10.064;2022-09-09T10:29:52;20.80;99.90
5394;DHT22;2720;52.396;10.064;2022-09-09T10:32:36;20.80;99.90
5394;DHT22;2720;52.396;10.064;2022-09-09T10:35:10;20.60;99.90
5394;DHT22;2720;52.396;10.064;2022-09-09T10:37:50;20.30;99.90
5394;DHT22;2720;52.396;10.064;2022-09-09T10:40:32;20.20;99.90
5394;DHT22;2720;52.396;10.064;2022-09-09T10:43:07;20.10;99.90
5394;DHT22;2720;52.396;10.064;2022-09-09T10:45:44;20.00;99.90
5394;DHT22;2720;52.396;10.064;2022-09-09T10:48:28;19.80;99.90
5394;DHT22;2720;52.396;10.064;2022-09-09T10:53:53;19.70;99.90
5394;DHT22;2720;52.396;10.064;2022-09-09T10:56:23;19.70;99.90
5394;DHT22;2720;52.396;10.064;2022-09-09T10:58:54;19.80;99.90
5394;DHT22;2720;52.396;10.064;2022-09-09T11:01:27;19.80;99.90
5394;DHT22;2720;52.396;10.064;2022-09-09T11:04:02;19.70;99.90
5394;DHT22;2720;52.396;10.064;2022-09-09T11:06:37;19.60;99.90
5394;DHT22;2720;52.396;10.064;2022-09-09T11:09:10;19.50;99.90
5394;DHT22;2720;52.396;10.064;2022-09-09T11:11:43;19.50;99.90
5394;DHT22;2720;52.396;10.064;2022-09-09T11:14:18;19.40;99.90
5394;DHT22;2720;52.396;10.064;2022-09-09T11:16:50;19.30;99.90
5394;DHT22;2720;52.396;10.064;2022-09-09T11:19:25;19.30;99.90
5394;DHT22;2720;52.396;10.064;2022-09-09T11:21:55;19.10;99.90
5394;DHT22;2720;52.396;10.064;2022-09-09T11:24:27;19.00;99.90
5394;DHT22;2720;52.396;10.064;2022-09-09T11:27:00;19.00;99.90
5394;DHT22;2720;52.396;10.064;2022-09-09T11:29:45;19.00;99.90
5394;DHT22;2720;52.396;10.064;2022-09-09T11:32:33;19.20;99.90
5394;DHT22;2720;52.396;10.064;2022-09-09T11:35:12;19.50;99.90
5394;DHT22;2720;52.396;10.064;2022-09-09T11:38:05;19.90;99.90
5394;DHT22;2720;52.396;10.064;2022-09-09T11:40:37;20.30;99.90
5394;DHT22;2720;52.396;10.064;2022-09-09T11:43:09;20.40;99.90
5394;DHT22;2720;52.396;10.064;2022-09-09T11:45:39;20.20;99.90
5394;DHT22;2720;52.396;10.064;2022-09-09T11:48:22;19.90;99.90
5394;DHT22;2720;52.396;10.064;2022-09-09T11:51:00;19.80;99.90
5394;DHT22;2720;52.396;10.064;2022-09-09T11:53:28;19.50;99.90
5394;DHT22;2720;52.396;10.064;2022-09-09T11:56:07;19.20;99.90
5394;DHT22;2720;52.396;10.064;2022-09-09T11:58:42;18.70;99.90
5394;DHT22;2720;52.396;10.064;2022-09-09T12:01:27;17.90;99.90
5394;DHT22;2720;52.396;10.064;2022-09-09T12:04:21;17.10;99.90
5394;DHT22;2720;52.396;10.064;2022-09-09T12:06:56;16.40;99.90
5394;DHT22;2720;52.396;10.064;2022-09-09T12:09:33;16.10;99.90
5394;DHT22;2720;52.396;10.064;2022-09-09T12:12:23;16.00;99.90
5394;DHT22;2720;52.396;10.064;2022-09-09T12:14:59;15.70;99.90
5394;DHT22;2720;52.396;10.064;2022-09-09T12:17:28;15.80;99.90
5394;DHT22;2720;52.396;10.064;2022-09-09T12:20:09;15.90;99.90
5394;DHT22;2720;52.396;10.064;2022-09-09T12:22:52;16.00;99.90
5394;DHT22;2720;52.396;10.064;2022-09-09T12:25:28;16.20;99.90
5394;DHT22;2720;52.396;10.064;2022-09-09T12:28:04;16.50;99.90
5394;DHT22;2720;52.396;10.064;2022-09-09T12:30:39;16.70;99.90
5394;DHT22;2720;52.396;10.064;2022-09-09T12:33:11;16.90;99.90
5394;DHT22;2720;52.396;10.064;2022-09-09T12:35:40;17.00;99.90
5394;DHT22;2720;52.396;10.064;2022-09-09T12:38:14;17.00;99.90
5394;DHT22;2720;52.396;10.064;2022-09-09T12:40:41;17.10;99.90
5394;DHT22;2720;52.396;10.064;2022-09-09T12:43:17;17.00;99.90
5394;DHT22;2720;52.396;10.064;2022-09-09T12:45:45;17.20;99.90
5394;DHT22;2720;52.396;10.064;2022-09-09T12:48:13;17.40;99.90
5394;DHT22;2720;52.396;10.064;2022-09-09T12:50:45;17.50;99.90
5394;DHT22;2720;52.396;10.064;2022-09-09T12:53:19;17.60;99.90
5394;DHT22;2720;52.396;10.064;2022-09-09T12:55:50;17.60;99.90
5394;DHT22;2720;52.396;10.064;2022-09-09T12:58:18;17.70;99.90
5394;DHT22;2720;52.396;10.064;2022-09-09T13:00:49;17.80;99.90
5394;DHT22;2720;52.396;10.064;2022-09-09T13:03:19;17.90;99.90
5394;DHT22;2720;52.396;10.064;2022-09-09T13:05:47;18.20;99.90
5394;DHT22;2720;52.396;10.064;2022-09-09T13:08:16;18.40;99.90
5394;DHT22;2720;52.396;10.064;2022-09-09T13:10:48;18.60;99.90
5394;DHT22;2720;52.396;10.064;2022-09-09T13:13:20;18.70;99.90
5394;DHT22;2720;52.396;10.064;2022-09-09T13:15:50;18.80;99.90
5394;DHT22;2720;52.396;10.064;2022-09-09T13:18:20;19.00;99.90
5394;DHT22;2720;52.396;10.064;2022-09-09T13:20:48;18.90;99.90
5394;DHT22;2720;52.396;10.064;2022-09-09T13:23:18;19.00;99.90
5394;DHT22;2720;52.396;10.064;2022-09-09T13:25:54;19.00;99.90
5394;DHT22;2720;52.396;10.064;2022-09-09T13:28:23;18.90;99.90
5394;DHT22;2720;52.396;10.064;2022-09-09T13:30:57;19.00;99.90
5394;DHT22;2720;52.396;10.064;2022-09-09T13:33:33;19.10;99.90
5394;DHT22;2720;52.396;10.064;2022-09-09T13:36:04;19.00;99.90
5394;DHT22;2720;52.396;10.064;2022-09-09T13:38:36;19.10;99.90
5394;DHT22;2720;52.396;10.064;2022-09-09T13:41:05;19.20;99.90
5394;DHT22;2720;52.396;10.064;2022-09-09T13:43:36;19.30;99.90
5394;DHT22;2720;52.396;10.064;2022-09-09T13:46:06;19.50;99.90
5394;DHT22;2720;52.396;10.064;2022-09-09T13:48:54;19.70;99.90
5394;DHT22;2720;52.396;10.064;2022-09-09T13:51:29;19.90;99.90
5394;DHT22;2720;52.396;10.064;2022-09-09T13:53:58;19.90;99.90
5394;DHT22;2720;52.396;10.064;2022-09-09T13:56:26;20.00;99.90
5394;DHT22;2720;52.396;10.064;2022-09-09T13:58:53;20.00;99.90
5394;DHT22;2720;52.396;10.064;2022-09-09T14:01:20;19.80;99.90
5394;DHT22;2720;52.396;10.064;2022-09-09T14:03:47;19.80;99.90
5394;DHT22;2720;52.396;10.064;2022-09-09T14:06:14;19.80;99.90
5394;DHT22;2720;52.396;10.064;2022-09-09T14:08:41;19.80;99.90
5394;DHT22;2720;52.396;10.064;2022-09-09T14:11:12;19.90;99.90
5394;DHT22;2720;52.396;10.064;2022-09-09T14:13:39;20.10;99.90
5394;DHT22;2720;52.396;10.064;2022-09-09T14:16:06;20.30;99.90
5394;DHT22;2720;52.396;10.064;2022-09-09T14:18:33;20.40;99.90
5394;DHT22;2720;52.396;10.064;2022-09-09T14:21:00;20.60;99.90
5394;DHT22;2720;52.396;10.064;2022-09-09T14:23:27;20.80;99.90
5394;DHT22;2720;52.396;10.064;2022-09-09T14:25:55;21.00;99.90
5394;DHT22;2720;52.396;10.064;2022-09-09T14:28:23;21.10;99.90
5394;DHT22;2720;52.396;10.064;2022-09-09T14:30:51;21.20;99.90
5394;DHT22;2720;52.396;10.064;2022-09-09T14:33:18;21.40;99.90
5394;DHT22;2720;52.396;10.064;2022-09-09T14:35:45;21.60;99.90
5394;DHT22;2720;52.396;10.064;2022-09-09T14:38:12;21.70;99.90
5394;DHT22;2720;52.396;10.064;2022-09-09T14:40:39;21.70;99.90
5394;DHT22;2720;52.396;10.064;2022-09-09T14:43:09;21.80;99.90
5394;DHT22;2720;52.396;10.064;2022-09-09T14:45:38;22.10;99.90
5394;DHT22;2720;52.396;10.064;2022-09-09T14:48:05;22.20;99.90
5394;DHT22;2720;52.396;10.064;2022-09-09T14:50:32;22.30;99.90
5394;DHT22;2720;52.396;10.064;2022-09-09T14:53:00;22.60;99.90
5394;DHT22;2720;52.396;10.064;2022-09-09T14:55:27;22.70;99.90
5394;DHT22;2720;52.396;10.064;2022-09-09T14:57:55;22.60;99.90
5394;DHT22;2720;52.396;10.064;2022-09-09T15:00:22;22.30;99.90
5394;DHT22;2720;52.396;10.064;2022-09-09T15:02:53;22.10;99.90
5394;DHT22;2720;52.396;10.064;2022-09-09T15:05:20;22.20;99.90
5394;DHT22;2720;52.396;10.064;2022-09-09T15:07:48;22.60;99.90
5394;DHT22;2720;52.396;10.064;2022-09-09T15:10:15;23.00;99.90
5394;DHT22;2720;52.396;10.064;2022-09-09T15:12:42;23.20;99.90
5394;DHT22;2720;52.396;10.064;2022-09-09T15:15:10;23.50;99.90
5394;DHT22;2720;52.396;10.064;2022-09-09T15:17:38;23.80;99.90
5394;DHT22;2720;52.396;10.064;2022-09-09T15:20:08;23.80;99.90
5394;DHT22;2720;52.396;10.064;2022-09-09T15:22:35;23.60;99.90
5394;DHT22;2720;52.396;10.064;2022-09-09T15:25:04;23.50;99.90
5394;DHT22;2720;52.396;10.064;2022-09-09T15:27:31;23.60;99.90
5394;DHT22;2720;52.396;10.064;2022-09-09T15:29:59;23.90;99.90
5394;DHT22;2720;52.396;10.064;2022-09-09T15:32:27;24.20;99.90
5394;DHT22;2720;52.396;10.064;2022-09-09T15:34:55;24.60;99.90
5394;DHT22;2720;52.396;10.064;2022-09-09T15:37:23;24.60;99.90
5394;DHT22;2720;52.396;10.064;2022-09-09T15:39:50;24.30;99.90
5394;DHT22;2720;52.396;10.064;2022-09-09T15:42:17;23.80;99.90
5394;DHT22;2720;52.396;10.064;2022-09-09T15:44:44;23.60;99.90
5394;DHT22;2720;52.396;10.064;2022-09-09T15:47:11;23.50;99.90
5394;DHT22;2720;52.396;10.064;2022-09-09T15:49:39;23.60;99.90
5394;DHT22;2720;52.396;10.064;2022-09-09T15:52:08;23.60;99.90
5394;DHT22;2720;52.396;10.064;2022-09-09T15:54:38;23.40;99.90
5394;DHT22;2720;52.396;10.064;2022-09-09T15:57:07;23.30;99.90
5394;DHT22;2720;52.396;10.064;2022-09-09T15:59:35;23.10;99.90
5394;DHT22;2720;52.396;10.064;2022-09-09T16:02:03;22.90;99.90
5394;DHT22;2720;52.396;10.064;2022-09-09T16:04:30;22.90;99.90
5394;DHT22;2720;52.396;10.064;2022-09-09T16:06:59;23.00;99.90
5394;DHT22;2720;52.396;10.064;2022-09-09T16:09:27;22.80;99.90
5394;DHT22;2720;52.396;10.064;2022-09-09T16:11:58;22.50;99.90
5394;DHT22;2720;52.396;10.064;2022-09-09T16:14:26;22.10;99.90
5394;DHT22;2720;52.396;10.064;2022-09-09T16:16:53;21.80;99.90
5394;DHT22;2720;52.396;10.064;2022-09-09T16:19:20;21.50;99.90